createdAt,value
2023-04-24T00:00:48.070Z,99.90
2023-04-24T00:03:16.896Z,99.90
2023-04-24T00:05:45.649Z,99.90
2023-04-24T00:08:15.799Z,99.90
2023-04-24T00:10:44.664Z,99.90
2023-04-24T00:13:13.528Z,99.90
2023-04-24T00:15:42.084Z,99.90
2023-04-24T00:18:10.620Z,99.90
2023-04-24T00:20:39.164Z,99.90
2023-04-24T00:23:07.802Z,99.90
2023-04-24T00:25:37.849Z,99.90
2023-04-24T00:28:06.505Z,99.90
2023-04-24T00:30:35.116Z,99.90
2023-04-24T00:33:04.051Z,99.90
2023-04-24T00:35:32.660Z,99.90
2023-04-24T00:38:01.221Z,99.90
2023-04-24T00:40:30.410Z,99.90
2023-04-24T00:43:00.469Z,99.90
2023-04-24T00:45:29.069Z,99.90
2023-04-24T00:47:59.728Z,99.90
2023-04-24T00:50:28.746Z,99.90
2023-04-24T00:52:57.600Z,99.90
2023-04-24T00:55:28.055Z,99.90
2023-04-24T00:57:57.141Z,99.90
2023-04-24T01:00:27.805Z,99.90
2023-04-24T01:03:00.251Z,99.90
2023-04-24T01:05:29.286Z,99.90
2023-04-24T01:07:58.864Z,99.90
2023-04-24T01:10:29.741Z,99.90
2023-04-24T01:12:59.066Z,99.90
2023-04-24T01:15:29.126Z,99.90
2023-04-24T01:17:57.559Z,99.90
2023-04-24T01:20:27.219Z,99.90
2023-04-24T01:22:58.679Z,99.90
2023-04-24T01:25:29.399Z,99.90
2023-04-24T01:27:59.607Z,99.90
2023-04-24T01:30:28.732Z,99.90
2023-04-24T01:32:58.404Z,99.90
2023-04-24T01:35:27.502Z,99.90
2023-04-24T01:37:57.757Z,99.90
2023-04-24T01:40:27.012Z,99.90
2023-04-24T01:42:55.785Z,99.90
2023-04-24T01:45:24.654Z,99.90
2023-04-24T01:47:53.475Z,99.90
2023-04-24T01:50:22.104Z,99.90
2023-04-24T01:52:50.831Z,99.90
2023-04-24T01:55:20.967Z,99.90
2023-04-24T01:57:49.813Z,99.90
2023-04-24T02:00:18.495Z,99.90
2023-04-24T02:02:48.541Z,99.90
2023-04-24T02:05:17.498Z,99.90
2023-04-24T02:07:46.222Z,99.90
2023-04-24T02:10:14.791Z,99.90
2023-04-24T02:12:46.215Z,99.90
2023-04-24T02:15:16.063Z,99.90
2023-04-24T02:17:44.595Z,99.90
2023-04-24T02:20:13.398Z,99.90
2023-04-24T02:22:41.891Z,99.90
2023-04-24T02:25:11.138Z,99.90
2023-04-24T02:27:39.870Z,99.90
2023-04-24T02:30:11.406Z,99.90
2023-04-24T02:32:40.293Z,99.90
2023-04-24T02:35:13.134Z,99.90
2023-04-24T02:37:41.881Z,99.90
2023-04-24T02:40:14.590Z,99.90
2023-04-24T02:42:43.274Z,99.90
2023-04-24T02:45:13.738Z,99.90
2023-04-24T02:47:42.277Z,99.90
2023-04-24T02:50:11.619Z,99.90
2023-04-24T02:52:40.236Z,99.90
2023-04-24T02:55:10.052Z,99.90
2023-04-24T02:57:38.723Z,99.90
2023-04-24T03:00:10.273Z,99.90
2023-04-24T03:02:40.661Z,99.90
2023-04-24T03:05:10.198Z,99.90
2023-04-24T03:07:38.892Z,99.90
2023-04-24T03:10:09.138Z,99.90
2023-04-24T03:12:37.794Z,99.90
2023-04-24T03:15:07.179Z,99.90
2023-04-24T03:17:40.814Z,99.90
2023-04-24T03:20:10.887Z,99.90
2023-04-24T03:22:39.987Z,99.90
2023-04-24T03:25:11.049Z,99.90
2023-04-24T03:27:40.626Z,99.90
2023-04-24T03:30:18.522Z,99.90
2023-04-24T03:32:54.164Z,99.90
2023-04-24T03:35:27.749Z,99.90
2023-04-24T03:37:57.445Z,99.90
2023-04-24T03:40:41.005Z,99.90
2023-04-24T03:43:23.208Z,99.90
2023-04-24T03:45:52.183Z,99.90
2023-04-24T03:48:23.331Z,99.90
2023-04-24T03:50:52.319Z,99.90
2023-04-24T03:53:21.037Z,99.90
2023-04-24T03:55:50.857Z,99.90
2023-04-24T03:58:20.083Z,99.90
2023-04-24T04:00:49.140Z,99.90
2023-04-24T04:03:46.641Z,99.90
2023-04-24T04:06:19.367Z,99.90
2023-04-24T04:08:48.620Z,99.90
2023-04-24T04:11:17.113Z,99.90
2023-04-24T04:13:49.067Z,99.90
2023-04-24T04:16:21.247Z,99.90
2023-04-24T04:18:53.572Z,99.90
2023-04-24T04:21:22.347Z,99.90
2023-04-24T04:23:54.300Z,99.90
2023-04-24T04:26:29.245Z,99.90
2023-04-24T04:29:04.683Z,99.90
2023-04-24T04:31:35.044Z,99.90
2023-04-24T04:34:10.250Z,99.90
2023-04-24T04:36:44.018Z,99.90
2023-04-24T04:39:42.312Z,99.90
2023-04-24T04:42:24.775Z,99.90
2023-04-24T04:44:53.791Z,99.90
2023-04-24T04:47:29.787Z,99.90
2023-04-24T04:50:01.162Z,99.90
2023-04-24T04:52:30.940Z,99.90
2023-04-24T04:55:21.021Z,99.90
2023-04-24T04:58:12.123Z,99.90
2023-04-24T05:00:40.919Z,99.90
2023-04-24T05:03:21.483Z,99.90
2023-04-24T05:05:58.170Z,99.90
2023-04-24T05:08:28.067Z,99.90
2023-04-24T05:10:57.920Z,99.90
2023-04-24T05:13:39.417Z,99.90
2023-04-24T05:16:26.747Z,99.90
2023-04-24T05:18:56.938Z,99.90
2023-04-24T05:21:33.047Z,99.90
2023-04-24T05:24:02.486Z,99.90
2023-04-24T05:26:48.098Z,99.90
2023-04-24T05:29:20.267Z,99.90
2023-04-24T05:31:49.580Z,99.90
2023-04-24T05:34:18.398Z,99.90
2023-04-24T05:36:54.254Z,99.90
2023-04-24T05:39:22.968Z,99.90
2023-04-24T05:41:51.782Z,99.90
2023-04-24T05:44:20.588Z,99.90
2023-04-24T05:46:50.294Z,99.90
2023-04-24T05:49:19.553Z,99.90
2023-04-24T05:51:48.755Z,99.90
2023-04-24T05:54:20.221Z,99.90
2023-04-24T05:56:49.174Z,99.90
2023-04-24T05:59:24.934Z,99.90
2023-04-24T06:01:54.031Z,99.90
2023-04-24T06:04:25.606Z,99.90
2023-04-24T06:06:57.052Z,99.90
2023-04-24T06:09:28.150Z,99.90
2023-04-24T06:11:57.714Z,99.90
2023-04-24T06:14:31.371Z,99.90
2023-04-24T06:17:18.678Z,99.90
2023-04-24T06:19:50.033Z,99.90
2023-04-24T06:22:18.962Z,99.90
2023-04-24T06:24:50.765Z,99.90
2023-04-24T06:27:20.056Z,99.90
2023-04-24T06:29:53.830Z,99.90
2023-04-24T06:32:23.469Z,99.90
2023-04-24T06:34:54.043Z,99.90
2023-04-24T06:37:23.153Z,99.90
2023-04-24T06:39:53.309Z,99.90
2023-04-24T06:42:23.168Z,99.90
2023-04-24T06:44:52.238Z,99.90
2023-04-24T06:47:21.060Z,99.90
2023-04-24T06:49:52.081Z,99.90
2023-04-24T06:52:21.426Z,99.90
2023-04-24T06:54:50.125Z,99.90
2023-04-24T06:57:21.014Z,99.90
2023-04-24T06:59:50.054Z,99.90
2023-04-24T07:02:18.837Z,99.90
2023-04-24T07:04:48.701Z,99.90
2023-04-24T07:07:17.720Z,99.90
2023-04-24T07:09:47.177Z,99.90
2023-04-24T07:12:16.099Z,99.90
2023-04-24T07:14:46.315Z,99.90
2023-04-24T07:17:15.770Z,99.90
2023-04-24T07:19:45.000Z,99.90
2023-04-24T07:22:18.029Z,99.90
2023-04-24T07:24:46.887Z,99.90
2023-04-24T07:27:16.448Z,99.90
2023-04-24T07:29:47.038Z,99.90
2023-04-24T07:32:16.037Z,99.90
2023-04-24T07:34:44.900Z,99.90
2023-04-24T07:37:13.893Z,99.90
2023-04-24T07:39:43.310Z,99.90
2023-04-24T07:42:12.461Z,99.90
2023-04-24T07:44:41.182Z,99.90
2023-04-24T07:47:11.788Z,99.90
2023-04-24T07:49:40.553Z,99.90
2023-04-24T07:52:09.391Z,99.90
2023-04-24T07:54:38.664Z,99.90
2023-04-24T07:57:08.123Z,99.90
2023-04-24T07:59:36.950Z,99.90
2023-04-24T08:02:05.760Z,99.90
2023-04-24T08:04:37.272Z,99.90
2023-04-24T08:07:06.152Z,99.90
2023-04-24T08:09:34.866Z,99.90
2023-04-24T08:12:03.697Z,99.90
2023-04-24T08:14:32.375Z,99.90
2023-04-24T08:17:01.736Z,99.90
2023-04-24T08:19:30.513Z,99.90
2023-04-24T08:22:00.890Z,99.90
2023-04-24T08:24:29.537Z,99.90
2023-04-24T08:26:59.318Z,99.90
2023-04-24T08:29:28.526Z,99.90
2023-04-24T08:31:57.141Z,99.90
2023-04-24T08:34:27.839Z,99.90
2023-04-24T08:36:58.461Z,99.90
2023-04-24T08:39:28.832Z,99.90
2023-04-24T08:41:58.264Z,99.90
2023-04-24T08:44:27.250Z,99.90
2023-04-24T08:46:56.712Z,99.90
2023-04-24T08:49:28.142Z,99.90
2023-04-24T08:51:57.209Z,99.90
2023-04-24T08:54:28.212Z,99.90
2023-04-24T08:57:02.133Z,99.90
2023-04-24T08:59:31.423Z,99.90
2023-04-24T09:02:00.685Z,99.90
2023-04-24T09:04:31.486Z,99.90
2023-04-24T09:07:02.090Z,99.90
2023-04-24T09:09:35.034Z,99.90
2023-04-24T09:12:04.915Z,99.90
2023-04-24T09:14:34.875Z,99.90
2023-04-24T09:17:03.543Z,99.90
2023-04-24T09:19:32.144Z,99.90
2023-04-24T09:22:00.837Z,99.90
2023-04-24T09:24:29.711Z,99.90
2023-04-24T09:27:02.570Z,99.90
2023-04-24T09:29:33.062Z,99.90
2023-04-24T09:32:02.067Z,99.90
2023-04-24T09:34:31.752Z,99.90
2023-04-24T09:37:00.821Z,99.90
2023-04-24T09:39:29.598Z,99.90
2023-04-24T09:42:00.364Z,99.90
2023-04-24T09:44:30.218Z,99.90
2023-04-24T09:47:01.127Z,99.90
2023-04-24T09:49:31.198Z,99.90
2023-04-24T09:52:06.122Z,99.90
2023-04-24T09:54:34.896Z,99.90
2023-04-24T09:57:10.091Z,99.90
2023-04-24T09:59:46.175Z,99.90
2023-04-24T10:02:20.218Z,99.90
2023-04-24T10:04:57.959Z,99.90
2023-04-24T10:07:28.758Z,99.90
2023-04-24T10:09:57.741Z,99.90
2023-04-24T10:12:30.274Z,99.90
2023-04-24T10:15:00.287Z,99.90
2023-04-24T10:17:30.147Z,99.90
2023-04-24T10:20:00.195Z,99.90
2023-04-24T10:22:31.474Z,99.90
2023-04-24T10:25:01.768Z,99.90
2023-04-24T10:27:33.225Z,99.90
2023-04-24T10:30:02.894Z,99.90
2023-04-24T10:32:31.645Z,99.90
2023-04-24T10:35:03.727Z,99.90
2023-04-24T10:37:39.720Z,99.90
2023-04-24T10:40:10.808Z,99.90
2023-04-24T10:42:44.763Z,99.90
2023-04-24T10:45:20.299Z,99.90
2023-04-24T10:47:55.012Z,99.90
2023-04-24T10:50:23.849Z,99.90
2023-04-24T10:52:53.863Z,99.90
2023-04-24T10:55:44.779Z,99.90
2023-04-24T10:58:16.030Z,99.90
2023-04-24T11:00:46.520Z,99.90
2023-04-24T11:03:30.335Z,99.90
2023-04-24T11:06:01.751Z,99.90
2023-04-24T11:08:33.272Z,99.90
2023-04-24T11:11:12.083Z,99.90
2023-04-24T11:14:09.615Z,99.90
2023-04-24T11:16:45.730Z,99.90
2023-04-24T11:19:24.649Z,99.90
2023-04-24T11:22:01.541Z,99.90
2023-04-24T11:24:32.994Z,99.90
2023-04-24T11:27:08.025Z,99.90
2023-04-24T11:29:50.269Z,99.90
2023-04-24T11:32:26.996Z,99.90
2023-04-24T11:34:57.836Z,99.50
2023-04-24T11:37:28.882Z,98.30
2023-04-24T11:39:59.128Z,97.80
2023-04-24T11:42:28.292Z,97.80
2023-04-24T11:44:59.017Z,97.00
2023-04-24T11:47:33.829Z,96.90
2023-04-24T11:50:03.582Z,98.60
2023-04-24T11:52:32.943Z,98.90
2023-04-24T11:55:02.791Z,99.00
2023-04-24T11:57:34.935Z,98.80
2023-04-24T12:00:07.759Z,98.70
2023-04-24T12:02:43.591Z,99.20
2023-04-24T12:05:24.041Z,98.80
2023-04-24T12:07:53.285Z,99.90
2023-04-24T12:10:26.116Z,99.90
2023-04-24T12:12:55.260Z,99.90
2023-04-24T12:15:25.866Z,99.90
2023-04-24T12:17:55.675Z,99.90
2023-04-24T12:20:27.717Z,99.90
2023-04-24T12:22:57.867Z,99.90
2023-04-24T12:25:27.849Z,99.90
2023-04-24T12:27:58.519Z,99.90
2023-04-24T12:30:31.725Z,99.90
2023-04-24T12:33:01.943Z,99.70
2023-04-24T12:35:34.680Z,99.90
2023-04-24T12:38:09.213Z,99.90
2023-04-24T12:40:38.149Z,99.90
2023-04-24T12:43:17.311Z,99.90
2023-04-24T12:45:47.494Z,99.90
2023-04-24T12:48:16.372Z,99.90
2023-04-24T12:50:46.431Z,99.90
2023-04-24T12:53:16.543Z,99.90
2023-04-24T12:55:46.242Z,99.90
2023-04-24T12:58:15.112Z,99.90
2023-04-24T13:00:46.910Z,99.90
2023-04-24T13:03:17.593Z,99.90
2023-04-24T13:05:46.376Z,99.90
2023-04-24T13:08:15.266Z,99.90
2023-04-24T13:10:44.090Z,99.90
2023-04-24T13:13:12.846Z,99.90
2023-04-24T13:15:41.560Z,99.90
2023-04-24T13:18:10.285Z,99.90
2023-04-24T13:20:42.178Z,99.90
2023-04-24T13:23:11.255Z,99.70
2023-04-24T13:25:40.239Z,99.90
2023-04-24T13:28:08.946Z,99.90
2023-04-24T13:30:37.579Z,99.90
2023-04-24T13:33:06.333Z,99.90
2023-04-24T13:35:35.012Z,99.90
2023-04-24T13:38:07.147Z,99.90
2023-04-24T13:40:36.552Z,99.90
2023-04-24T13:43:05.386Z,99.90
2023-04-24T13:45:34.046Z,99.90
2023-04-24T13:48:04.256Z,99.90
2023-04-24T13:50:33.005Z,99.90
2023-04-24T13:53:02.976Z,99.90
2023-04-24T13:55:33.284Z,99.90
2023-04-24T13:58:02.448Z,99.30
2023-04-24T14:00:32.133Z,97.50
2023-04-24T14:03:01.014Z,97.60
2023-04-24T14:05:29.654Z,99.00
2023-04-24T14:07:58.173Z,98.20
2023-04-24T14:10:28.200Z,98.00
2023-04-24T14:12:58.520Z,98.50
2023-04-24T14:15:31.705Z,98.90
2023-04-24T14:18:00.687Z,99.50
2023-04-24T14:20:29.352Z,99.00
2023-04-24T14:23:00.534Z,98.70
2023-04-24T14:25:29.309Z,98.10
2023-04-24T14:27:59.345Z,98.70
2023-04-24T14:30:28.001Z,99.10
2023-04-24T14:32:56.692Z,99.40
2023-04-24T14:35:25.313Z,99.50
2023-04-24T14:37:53.955Z,98.90
2023-04-24T14:40:48.364Z,99.20
2023-04-24T14:43:12.736Z,99.90
2023-04-24T14:45:42.446Z,99.90
2023-04-24T14:48:12.395Z,99.90
2023-04-24T14:50:41.044Z,99.90
2023-04-24T14:53:09.845Z,99.90
2023-04-24T14:55:38.425Z,99.90
2023-04-24T14:58:07.131Z,99.60
2023-04-24T15:00:37.121Z,99.40
2023-04-24T15:03:06.765Z,99.20
2023-04-24T15:05:35.720Z,98.50
2023-04-24T15:08:04.746Z,98.90
2023-04-24T15:10:33.451Z,98.60
2023-04-24T15:13:02.079Z,97.80
2023-04-24T15:15:30.939Z,97.80
2023-04-24T15:18:01.115Z,98.50
2023-04-24T15:20:29.798Z,97.60
2023-04-24T15:23:00.420Z,97.00
2023-04-24T15:25:29.161Z,97.60
2023-04-24T15:27:58.787Z,97.70
2023-04-24T15:30:27.532Z,97.90
2023-04-24T15:32:56.219Z,97.70
2023-04-24T15:35:26.478Z,98.10
2023-04-24T15:37:55.048Z,98.40
2023-04-24T15:40:23.801Z,98.20
2023-04-24T15:42:52.530Z,98.70
2023-04-24T15:45:21.337Z,98.00
2023-04-24T15:47:51.060Z,98.50
2023-04-24T15:50:21.730Z,99.10
2023-04-24T15:52:51.767Z,99.30
2023-04-24T15:55:23.766Z,99.40
2023-04-24T15:57:52.531Z,99.70
2023-04-24T16:00:22.061Z,99.90
2023-04-24T16:02:51.823Z,99.90
2023-04-24T16:05:22.906Z,99.90
2023-04-24T16:07:53.025Z,99.90
2023-04-24T16:10:21.814Z,99.90
2023-04-24T16:12:53.449Z,99.90
2023-04-24T16:15:22.758Z,99.90
2023-04-24T16:17:52.164Z,99.90
2023-04-24T16:20:26.892Z,99.90
2023-04-24T16:22:56.945Z,99.90
2023-04-24T16:25:30.311Z,99.20
2023-04-24T16:27:59.036Z,99.40
2023-04-24T16:30:27.756Z,99.30
2023-04-24T16:32:56.683Z,98.90
2023-04-24T16:35:25.491Z,99.00
2023-04-24T16:37:57.571Z,98.10
2023-04-24T16:40:26.471Z,97.50
2023-04-24T16:42:55.180Z,97.90
2023-04-24T16:45:23.832Z,98.30
2023-04-24T16:47:52.456Z,99.60
2023-04-24T16:50:21.355Z,99.90
2023-04-24T16:52:50.156Z,99.30
2023-04-24T16:55:20.387Z,99.90
2023-04-24T16:57:49.117Z,99.60
2023-04-24T17:00:18.429Z,99.30
2023-04-24T17:02:48.959Z,99.00
2023-04-24T17:05:19.389Z,98.50
2023-04-24T17:07:48.075Z,99.20
2023-04-24T17:10:16.658Z,98.10
2023-04-24T17:12:46.670Z,98.10
2023-04-24T17:15:15.293Z,98.80
2023-04-24T17:17:44.461Z,98.10
2023-04-24T17:20:21.887Z,98.30
2023-04-24T17:22:51.866Z,98.80
2023-04-24T17:25:21.297Z,97.70
2023-04-24T17:27:51.397Z,97.50
2023-04-24T17:30:20.123Z,96.30
2023-04-24T17:32:48.750Z,94.90
2023-04-24T17:35:43.891Z,95.50
2023-04-24T17:38:13.812Z,96.30
2023-04-24T17:40:42.306Z,96.50
2023-04-24T17:43:12.691Z,97.30
2023-04-24T17:46:48.325Z,98.10
2023-04-24T17:49:16.945Z,98.40
2023-04-24T17:51:48.983Z,97.60
2023-04-24T17:54:18.341Z,97.20
2023-04-24T17:56:47.652Z,97.00
2023-04-24T17:59:47.255Z,96.80
2023-04-24T18:02:16.256Z,97.10
2023-04-24T18:04:45.128Z,98.00
2023-04-24T18:07:13.937Z,98.50
2023-04-24T18:10:38.404Z,99.10
2023-04-24T18:13:07.229Z,99.70
2023-04-24T18:15:37.292Z,99.90
2023-04-24T18:18:06.156Z,99.90
2023-04-24T18:20:59.808Z,99.90
2023-04-24T18:23:28.530Z,99.90
2023-04-24T18:25:57.166Z,99.90
2023-04-24T18:28:25.880Z,99.90
2023-04-24T18:30:55.993Z,99.90
2023-04-24T18:33:24.637Z,99.90
2023-04-24T18:35:53.229Z,99.90
2023-04-24T18:38:22.204Z,99.90
2023-04-24T18:41:16.879Z,99.90
2023-04-24T18:45:04.048Z,99.90
2023-04-24T18:47:34.334Z,99.90
2023-04-24T18:51:11.406Z,99.90
2023-04-24T18:53:40.218Z,99.90
2023-04-24T18:56:08.846Z,99.90
2023-04-24T18:58:37.459Z,99.90
2023-04-24T19:01:08.185Z,99.90
2023-04-24T19:03:38.509Z,99.90
2023-04-24T19:06:07.404Z,99.90
2023-04-24T19:08:38.595Z,99.90
2023-04-24T19:11:07.366Z,99.90
2023-04-24T19:13:35.974Z,99.90
2023-04-24T19:16:04.576Z,99.90
2023-04-24T19:18:33.222Z,99.90
2023-04-24T19:21:03.260Z,99.90
2023-04-24T19:23:33.414Z,99.90
2023-04-24T19:26:02.272Z,99.90
2023-04-24T19:28:30.908Z,99.90
2023-04-24T19:31:00.127Z,99.90
2023-04-24T19:33:29.085Z,99.90
2023-04-24T19:35:57.788Z,99.90
2023-04-24T19:38:28.023Z,99.90
2023-04-24T19:40:56.503Z,99.90
2023-04-24T19:43:25.328Z,99.90
2023-04-24T19:45:53.926Z,99.90
2023-04-24T19:48:22.572Z,99.90
2023-04-24T19:50:51.278Z,99.90
2023-04-24T19:53:19.792Z,99.90
2023-04-24T19:55:55.771Z,99.90
2023-04-24T19:58:24.257Z,99.90
2023-04-24T20:00:52.812Z,99.90
2023-04-24T20:03:32.060Z,99.90
2023-04-24T20:06:02.525Z,99.90
2023-04-24T20:08:31.068Z,99.90
2023-04-24T20:11:01.133Z,99.90
2023-04-24T20:13:31.986Z,99.90
2023-04-24T20:16:00.810Z,99.90
2023-04-24T20:18:29.317Z,99.90
2023-04-24T20:21:00.095Z,99.90
2023-04-24T20:23:28.835Z,99.90
2023-04-24T20:25:59.091Z,99.90
2023-04-24T20:28:30.445Z,99.90
2023-04-24T20:30:59.987Z,99.90
2023-04-24T20:33:30.532Z,99.90
2023-04-24T20:35:59.046Z,99.90
2023-04-24T20:38:27.664Z,99.90
2023-04-24T20:40:58.160Z,99.90
2023-04-24T20:43:29.471Z,99.90
2023-04-24T20:45:59.315Z,99.90
2023-04-24T20:48:27.988Z,99.90
2023-04-24T20:50:56.698Z,99.90
2023-04-24T20:53:25.826Z,99.90
2023-04-24T20:55:54.494Z,99.90
2023-04-24T20:58:23.982Z,99.90
2023-04-24T21:00:54.185Z,99.90
2023-04-24T21:03:22.796Z,99.90
2023-04-24T21:05:51.461Z,99.90
2023-04-24T21:08:20.012Z,99.90
2023-04-24T21:10:48.584Z,99.90
2023-04-24T21:13:17.066Z,99.90
2023-04-24T21:15:45.562Z,99.90
2023-04-24T21:18:16.268Z,99.90
2023-04-24T21:20:44.756Z,99.90
2023-04-24T21:23:13.296Z,99.90
2023-04-24T21:25:41.931Z,99.90
2023-04-24T21:28:10.544Z,99.90
2023-04-24T21:30:39.594Z,99.90
2023-04-24T21:33:08.233Z,99.90
2023-04-24T21:35:38.324Z,99.90
2023-04-24T21:38:07.079Z,99.90
2023-04-24T21:40:35.622Z,99.90
2023-04-24T21:43:04.152Z,99.90
2023-04-24T21:45:32.879Z,99.90
2023-04-24T21:48:02.093Z,99.90
2023-04-24T21:50:30.849Z,99.90
2023-04-24T21:53:00.896Z,99.90
2023-04-24T21:55:29.626Z,99.90
2023-04-24T21:57:58.544Z,99.90
2023-04-24T22:00:27.304Z,99.90
2023-04-24T22:02:56.107Z,99.90
2023-04-24T22:05:24.902Z,99.90
2023-04-24T22:07:54.295Z,99.90
2023-04-24T22:10:24.333Z,99.90
2023-04-24T22:12:53.059Z,99.90
2023-04-24T22:15:21.821Z,99.90
2023-04-24T22:17:52.765Z,99.90
2023-04-24T22:20:21.537Z,99.90
2023-04-24T22:22:50.277Z,99.90
2023-04-24T22:25:19.943Z,99.90
2023-04-24T22:27:50.732Z,99.90
2023-04-24T22:30:19.624Z,99.90
2023-04-24T22:32:48.959Z,99.90
2023-04-24T22:35:19.440Z,99.90
2023-04-24T22:37:48.921Z,99.90
2023-04-24T22:40:17.674Z,99.90
2023-04-24T22:42:46.670Z,99.90
2023-04-24T22:45:16.770Z,99.90
2023-04-24T22:47:45.506Z,99.90
2023-04-24T22:50:14.148Z,99.90
2023-04-24T22:52:44.018Z,99.90
2023-04-24T22:55:15.859Z,99.90
2023-04-24T22:57:44.409Z,99.90
2023-04-24T23:00:13.742Z,99.90
2023-04-24T23:02:44.102Z,99.90
2023-04-24T23:05:12.745Z,99.90
2023-04-24T23:07:41.318Z,99.90
2023-04-24T23:10:10.813Z,99.90
2023-04-24T23:12:39.773Z,99.90
2023-04-24T23:15:09.798Z,99.90
2023-04-24T23:17:38.340Z,99.90
2023-04-24T23:20:13.253Z,99.90
2023-04-24T23:22:42.634Z,99.90
2023-04-24T23:25:11.617Z,99.90
2023-04-24T23:27:40.086Z,99.90
2023-04-24T23:30:09.868Z,99.90
2023-04-24T23:32:38.476Z,99.90
2023-04-24T23:35:09.260Z,99.90
2023-04-24T23:37:38.677Z,99.90
2023-04-24T23:40:09.895Z,99.90
2023-04-24T23:42:38.627Z,99.90
2023-04-24T23:45:07.955Z,99.90
2023-04-24T23:47:36.518Z,99.90
2023-04-24T23:50:05.549Z,99.90
2023-04-24T23:52:36.216Z,99.90
2023-04-24T23:55:05.137Z,99.90
2023-04-24T23:57:33.711Z,99.90
